sensor_id;sensor_type;location;lat;lon;timestamp;temperature;humidity
52459;DHT22;38372;52.902;6.024;2023-12-22T00:01:32;6.90;99.90
52459;DHT22;38372;52.902;6.024;2023-12-22T00:03:57;6.80;99.90
52459;DHT22;38372;52.902;6.024;2023-12-22T00:06:23;6.80;99.90
52459;DHT22;38372;52.902;6.024;2023-12-22T00:08:49;6.80;99.90
52459;DHT22;38372;52.902;6.024;2023-12-22T00:11:15;6.80;99.90
52459;DHT22;38372;52.902;6.024;2023-12-22T00:13:40;6.80;99.90
52459;DHT22;38372;52.902;6.024;2023-12-22T00:16:06;6.70;99.90
52459;DHT22;38372;52.902;6.024;2023-12-22T00:18:32;6.70;99.90
52459;DHT22;38372;52.902;6.024;2023-12-22T00:20:58;6.70;99.90
52459;DHT22;38372;52.902;6.024;2023-12-22T00:23:24;6.70;99.90
52459;DHT22;38372;52.902;6.024;2023-12-22T00:25:49;6.80;99.90
52459;DHT22;38372;52.902;6.024;2023-12-22T00:28:15;6.80;99.90
52459;DHT22;38372;52.902;6.024;2023-12-22T00:30:41;6.90;99.90
52459;DHT22;38372;52.902;6.024;2023-12-22T00:33:07;6.90;99.90
52459;DHT22;38372;52.902;6.024;2023-12-22T00:35:32;6.90;99.90
52459;DHT22;38372;52.902;6.024;2023-12-22T00:38:01;6.90;99.90
52459;DHT22;38372;52.902;6.024;2023-12-22T00:40:26;6.80;99.90
52459;DHT22;38372;52.902;6.024;2023-12-22T00:42:52;6.70;99.90
52459;DHT22;38372;52.902;6.024;2023-12-22T00:45:18;6.70;99.90
52459;DHT22;38372;52.902;6.024;2023-12-22T00:47:44;6.70;99.90
52459;DHT22;38372;52.902;6.024;2023-12-22T00:50:10;6.70;99.90
52459;DHT22;38372;52.902;6.024;2023-12-22T00:52:35;6.70;99.90
52459;DHT22;38372;52.902;6.024;2023-12-22T00:55:01;6.70;99.90
52459;DHT22;38372;52.902;6.024;2023-12-22T00:57:27;6.80;99.90
52459;DHT22;38372;52.902;6.024;2023-12-22T00:59:53;6.80;99.90
52459;DHT22;38372;52.902;6.024;2023-12-22T01:02:18;6.90;99.90
52459;DHT22;38372;52.902;6.024;2023-12-22T01:04:45;7.00;99.90
52459;DHT22;38372;52.902;6.024;2023-12-22T01:07:11;7.00;99.90
52459;DHT22;38372;52.902;6.024;2023-12-22T01:09:38;7.00;99.90
52459;DHT22;38372;52.902;6.024;2023-12-22T01:12:04;7.00;99.90
52459;DHT22;38372;52.902;6.024;2023-12-22T01:14:32;7.00;99.90
52459;DHT22;38372;52.902;6.024;2023-12-22T01:16:57;6.90;99.90
52459;DHT22;38372;52.902;6.024;2023-12-22T01:19:24;6.80;99.90
52459;DHT22;38372;52.902;6.024;2023-12-22T01:21:50;6.80;99.90
52459;DHT22;38372;52.902;6.024;2023-12-22T01:24:16;6.90;99.90
52459;DHT22;38372;52.902;6.024;2023-12-22T01:26:42;6.80;99.90
52459;DHT22;38372;52.902;6.024;2023-12-22T01:29:08;6.80;99.90
52459;DHT22;38372;52.902;6.024;2023-12-22T01:31:34;6.80;99.90
52459;DHT22;38372;52.902;6.024;2023-12-22T01:34:00;6.80;99.90
52459;DHT22;38372;52.902;6.024;2023-12-22T01:36:26;6.80;99.90
52459;DHT22;38372;52.902;6.024;2023-12-22T01:38:52;6.80;99.90
52459;DHT22;38372;52.902;6.024;2023-12-22T01:41:17;6.80;99.90
52459;DHT22;38372;52.902;6.024;2023-12-22T01:43:43;6.80;99.90
52459;DHT22;38372;52.902;6.024;2023-12-22T01:46:09;6.90;99.90
52459;DHT22;38372;52.902;6.024;2023-12-22T01:48:36;6.90;99.90
52459;DHT22;38372;52.902;6.024;2023-12-22T01:51:02;7.00;99.90
52459;DHT22;38372;52.902;6.024;2023-12-22T01:53:30;7.00;99.90
52459;DHT22;38372;52.902;6.024;2023-12-22T01:56:00;7.00;99.90
52459;DHT22;38372;52.902;6.024;2023-12-22T01:58:29;7.00;99.90
52459;DHT22;38372;52.902;6.024;2023-12-22T02:00:56;6.90;99.90
52459;DHT22;38372;52.902;6.024;2023-12-22T02:03:23;6.90;99.90
52459;DHT22;38372;52.902;6.024;2023-12-22T02:05:51;6.90;99.90
52459;DHT22;38372;52.902;6.024;2023-12-22T02:08:21;6.90;99.90
52459;DHT22;38372;52.902;6.024;2023-12-22T02:10:48;6.90;99.90
52459;DHT22;38372;52.902;6.024;2023-12-22T02:13:14;7.00;99.90
52459;DHT22;38372;52.902;6.024;2023-12-22T02:15:40;6.90;99.90
52459;DHT22;38372;52.902;6.024;2023-12-22T02:20:32;6.40;99.90
52459;DHT22;38372;52.902;6.024;2023-12-22T02:22:58;6.00;99.90
52459;DHT22;38372;52.902;6.024;2023-12-22T02:25:24;5.70;99.90
52459;DHT22;38372;52.902;6.024;2023-12-22T02:27:53;5.50;99.90
52459;DHT22;38372;52.902;6.024;2023-12-22T02:32:50;5.30;99.90
52459;DHT22;38372;52.902;6.024;2023-12-22T02:35:21;5.30;99.90
52459;DHT22;38372;52.902;6.024;2023-12-22T02:37:49;5.20;99.90
52459;DHT22;38372;52.902;6.024;2023-12-22T02:40:15;5.30;99.90
52459;DHT22;38372;52.902;6.024;2023-12-22T02:42:42;5.30;99.90
52459;DHT22;38372;52.902;6.024;2023-12-22T02:45:17;5.40;99.90
52459;DHT22;38372;52.902;6.024;2023-12-22T02:47:43;5.40;99.90
52459;DHT22;38372;52.902;6.024;2023-12-22T02:50:10;5.30;99.90
52459;DHT22;38372;52.902;6.024;2023-12-22T02:52:36;5.30;99.90
52459;DHT22;38372;52.902;6.024;2023-12-22T02:55:03;5.30;99.90
52459;DHT22;38372;52.902;6.024;2023-12-22T02:57:29;5.30;99.90
52459;DHT22;38372;52.902;6.024;2023-12-22T02:59:55;5.40;99.90
52459;DHT22;38372;52.902;6.024;2023-12-22T03:02:21;5.40;99.90
52459;DHT22;38372;52.902;6.024;2023-12-22T03:04:47;5.40;99.90
52459;DHT22;38372;52.902;6.024;2023-12-22T03:07:13;5.40;99.90
52459;DHT22;38372;52.902;6.024;2023-12-22T03:09:39;5.40;99.90
52459;DHT22;38372;52.902;6.024;2023-12-22T03:12:07;5.50;99.90
52459;DHT22;38372;52.902;6.024;2023-12-22T03:14:32;5.50;99.90
52459;DHT22;38372;52.902;6.024;2023-12-22T03:17:02;5.50;99.90
52459;DHT22;38372;52.902;6.024;2023-12-22T03:19:29;5.40;99.90
52459;DHT22;38372;52.902;6.024;2023-12-22T03:21:55;5.40;99.90
52459;DHT22;38372;52.902;6.024;2023-12-22T03:24:22;5.50;99.90
52459;DHT22;38372;52.902;6.024;2023-12-22T03:26:49;5.40;99.90
52459;DHT22;38372;52.902;6.024;2023-12-22T03:29:15;5.40;99.90
52459;DHT22;38372;52.902;6.024;2023-12-22T03:31:41;5.50;99.90
52459;DHT22;38372;52.902;6.024;2023-12-22T03:34:07;5.50;99.90
52459;DHT22;38372;52.902;6.024;2023-12-22T03:36:32;5.50;99.90
52459;DHT22;38372;52.902;6.024;2023-12-22T03:38:58;5.50;99.90
52459;DHT22;38372;52.902;6.024;2023-12-22T03:41:24;5.60;99.90
52459;DHT22;38372;52.902;6.024;2023-12-22T03:43:50;5.60;99.90
52459;DHT22;38372;52.902;6.024;2023-12-22T03:46:16;5.60;99.90
52459;DHT22;38372;52.902;6.024;2023-12-22T03:48:41;5.60;99.90
52459;DHT22;38372;52.902;6.024;2023-12-22T03:51:07;5.70;99.90
52459;DHT22;38372;52.902;6.024;2023-12-22T03:53:33;5.70;99.90
52459;DHT22;38372;52.902;6.024;2023-12-22T03:55:59;5.70;99.90
52459;DHT22;38372;52.902;6.024;2023-12-22T03:58:25;5.70;99.90
52459;DHT22;38372;52.902;6.024;2023-12-22T04:00:52;5.70;99.90
52459;DHT22;38372;52.902;6.024;2023-12-22T04:03:18;5.80;99.90
52459;DHT22;38372;52.902;6.024;2023-12-22T04:05:43;5.80;99.90
52459;DHT22;38372;52.902;6.024;2023-12-22T04:08:09;5.80;99.90
52459;DHT22;38372;52.902;6.024;2023-12-22T04:10:35;5.90;99.90
52459;DHT22;38372;52.902;6.024;2023-12-22T04:13:01;5.90;99.90
52459;DHT22;38372;52.902;6.024;2023-12-22T04:15:26;6.00;99.90
52459;DHT22;38372;52.902;6.024;2023-12-22T04:17:52;6.00;99.90
52459;DHT22;38372;52.902;6.024;2023-12-22T04:20:18;6.10;99.90
52459;DHT22;38372;52.902;6.024;2023-12-22T04:22:44;6.20;99.90
52459;DHT22;38372;52.902;6.024;2023-12-22T04:25:09;6.20;99.90
52459;DHT22;38372;52.902;6.024;2023-12-22T04:27:35;6.30;99.90
52459;DHT22;38372;52.902;6.024;2023-12-22T04:30:01;6.30;99.90
52459;DHT22;38372;52.902;6.024;2023-12-22T04:32:27;6.30;99.90
52459;DHT22;38372;52.902;6.024;2023-12-22T04:34:53;6.30;99.90
52459;DHT22;38372;52.902;6.024;2023-12-22T04:37:18;6.30;99.90
52459;DHT22;38372;52.902;6.024;2023-12-22T04:39:44;6.30;99.90
52459;DHT22;38372;52.902;6.024;2023-12-22T04:42:10;6.30;99.90
52459;DHT22;38372;52.902;6.024;2023-12-22T04:44:36;6.30;99.90
52459;DHT22;38372;52.902;6.024;2023-12-22T04:47:02;6.30;99.90
52459;DHT22;38372;52.902;6.024;2023-12-22T04:49:28;6.30;99.90
52459;DHT22;38372;52.902;6.024;2023-12-22T04:51:54;6.40;99.90
52459;DHT22;38372;52.902;6.024;2023-12-22T04:54:20;6.30;99.90
52459;DHT22;38372;52.902;6.024;2023-12-22T04:56:46;6.30;99.90
52459;DHT22;38372;52.902;6.024;2023-12-22T04:59:11;6.40;99.90
52459;DHT22;38372;52.902;6.024;2023-12-22T05:01:37;6.40;99.90
52459;DHT22;38372;52.902;6.024;2023-12-22T05:04:03;6.50;99.90
52459;DHT22;38372;52.902;6.024;2023-12-22T05:06:29;6.60;99.90
52459;DHT22;38372;52.902;6.024;2023-12-22T05:08:55;6.60;99.90
52459;DHT22;38372;52.902;6.024;2023-12-22T05:11:22;6.60;99.90
52459;DHT22;38372;52.902;6.024;2023-12-22T05:13:48;6.70;99.90
52459;DHT22;38372;52.902;6.024;2023-12-22T05:16:13;6.80;99.90
52459;DHT22;38372;52.902;6.024;2023-12-22T05:18:40;6.90;99.90
52459;DHT22;38372;52.902;6.024;2023-12-22T05:21:06;6.90;99.90
52459;DHT22;38372;52.902;6.024;2023-12-22T05:23:32;6.90;99.90
52459;DHT22;38372;52.902;6.024;2023-12-22T05:25:58;6.90;99.90
52459;DHT22;38372;52.902;6.024;2023-12-22T05:28:24;6.90;99.90
52459;DHT22;38372;52.902;6.024;2023-12-22T05:30:50;6.90;99.90
52459;DHT22;38372;52.902;6.024;2023-12-22T05:33:16;6.90;99.90
52459;DHT22;38372;52.902;6.024;2023-12-22T05:35:42;6.90;99.90
52459;DHT22;38372;52.902;6.024;2023-12-22T05:38:08;6.90;99.90
52459;DHT22;38372;52.902;6.024;2023-12-22T05:40:33;6.90;99.90
52459;DHT22;38372;52.902;6.024;2023-12-22T05:42:59;7.00;99.90
52459;DHT22;38372;52.902;6.024;2023-12-22T05:45:25;7.00;99.90
52459;DHT22;38372;52.902;6.024;2023-12-22T05:47:51;7.00;99.90
52459;DHT22;38372;52.902;6.024;2023-12-22T05:50:17;7.00;99.90
52459;DHT22;38372;52.902;6.024;2023-12-22T05:52:43;7.00;99.90
52459;DHT22;38372;52.902;6.024;2023-12-22T05:55:11;7.10;99.90
52459;DHT22;38372;52.902;6.024;2023-12-22T05:57:37;7.00;99.90
52459;DHT22;38372;52.902;6.024;2023-12-22T06:00:04;7.10;99.90
52459;DHT22;38372;52.902;6.024;2023-12-22T06:02:33;7.10;99.90
52459;DHT22;38372;52.902;6.024;2023-12-22T06:04:59;7.10;99.90
52459;DHT22;38372;52.902;6.024;2023-12-22T06:07:26;7.00;99.90
52459;DHT22;38372;52.902;6.024;2023-12-22T06:09:52;7.00;99.90
52459;DHT22;38372;52.902;6.024;2023-12-22T06:12:18;7.00;99.90
52459;DHT22;38372;52.902;6.024;2023-12-22T06:14:43;7.00;99.90
52459;DHT22;38372;52.902;6.024;2023-12-22T06:17:09;7.10;99.90
52459;DHT22;38372;52.902;6.024;2023-12-22T06:19:36;7.10;99.90
52459;DHT22;38372;52.902;6.024;2023-12-22T06:22:02;7.10;99.90
52459;DHT22;38372;52.902;6.024;2023-12-22T06:24:27;7.10;99.90
52459;DHT22;38372;52.902;6.024;2023-12-22T06:26:53;7.10;99.90
52459;DHT22;38372;52.902;6.024;2023-12-22T06:29:19;7.10;99.90
52459;DHT22;38372;52.902;6.024;2023-12-22T06:31:45;7.10;99.90
52459;DHT22;38372;52.902;6.024;2023-12-22T06:34:19;7.10;99.90
52459;DHT22;38372;52.902;6.024;2023-12-22T06:36:45;7.10;99.90
52459;DHT22;38372;52.902;6.024;2023-12-22T06:39:10;7.10;99.90
52459;DHT22;38372;52.902;6.024;2023-12-22T06:41:36;7.20;99.90
52459;DHT22;38372;52.902;6.024;2023-12-22T06:44:02;7.10;99.90
52459;DHT22;38372;52.902;6.024;2023-12-22T06:46:28;7.20;99.90
52459;DHT22;38372;52.902;6.024;2023-12-22T06:48:56;7.20;99.90
52459;DHT22;38372;52.902;6.024;2023-12-22T06:51:27;7.20;99.90
52459;DHT22;38372;52.902;6.024;2023-12-22T06:53:54;7.20;99.90
52459;DHT22;38372;52.902;6.024;2023-12-22T06:56:25;7.20;99.90
52459;DHT22;38372;52.902;6.024;2023-12-22T06:58:52;7.10;99.90
52459;DHT22;38372;52.902;6.024;2023-12-22T07:01:22;7.10;99.90
52459;DHT22;38372;52.902;6.024;2023-12-22T07:03:49;7.10;99.90
52459;DHT22;38372;52.902;6.024;2023-12-22T07:06:15;7.10;99.90
52459;DHT22;38372;52.902;6.024;2023-12-22T07:08:42;7.10;99.90
52459;DHT22;38372;52.902;6.024;2023-12-22T07:11:11;7.10;99.90
52459;DHT22;38372;52.902;6.024;2023-12-22T07:13:37;7.10;99.90
52459;DHT22;38372;52.902;6.024;2023-12-22T07:16:04;7.00;99.90
52459;DHT22;38372;52.902;6.024;2023-12-22T07:18:30;7.00;99.90
52459;DHT22;38372;52.902;6.024;2023-12-22T07:20:57;7.00;99.90
52459;DHT22;38372;52.902;6.024;2023-12-22T07:23:24;6.90;99.90
52459;DHT22;38372;52.902;6.024;2023-12-22T07:25:50;6.90;99.90
52459;DHT22;38372;52.902;6.024;2023-12-22T07:28:16;7.00;99.90
52459;DHT22;38372;52.902;6.024;2023-12-22T07:30:42;6.90;99.90
52459;DHT22;38372;52.902;6.024;2023-12-22T07:33:07;6.90;99.90
52459;DHT22;38372;52.902;6.024;2023-12-22T07:35:33;6.90;99.90
52459;DHT22;38372;52.902;6.024;2023-12-22T07:38:00;6.90;99.90
52459;DHT22;38372;52.902;6.024;2023-12-22T07:40:28;6.90;99.90
52459;DHT22;38372;52.902;6.024;2023-12-22T07:42:59;6.90;99.90
52459;DHT22;38372;52.902;6.024;2023-12-22T07:45:26;6.90;99.90
52459;DHT22;38372;52.902;6.024;2023-12-22T07:47:52;6.90;99.90
52459;DHT22;38372;52.902;6.024;2023-12-22T07:50:18;7.00;99.90
52459;DHT22;38372;52.902;6.024;2023-12-22T07:52:43;6.90;99.90
52459;DHT22;38372;52.902;6.024;2023-12-22T07:55:09;6.90;99.90
52459;DHT22;38372;52.902;6.024;2023-12-22T07:57:36;7.00;99.90
52459;DHT22;38372;52.902;6.024;2023-12-22T08:00:03;6.90;99.90
52459;DHT22;38372;52.902;6.024;2023-12-22T08:02:30;6.90;99.90
52459;DHT22;38372;52.902;6.024;2023-12-22T08:04:55;6.90;99.90
52459;DHT22;38372;52.902;6.024;2023-12-22T08:07:21;6.90;99.90
52459;DHT22;38372;52.902;6.024;2023-12-22T08:09:47;6.90;99.90
52459;DHT22;38372;52.902;6.024;2023-12-22T08:12:13;6.90;99.90
52459;DHT22;38372;52.902;6.024;2023-12-22T08:14:38;6.90;99.90
52459;DHT22;38372;52.902;6.024;2023-12-22T08:17:04;6.90;99.90
52459;DHT22;38372;52.902;6.024;2023-12-22T08:19:30;6.80;99.90
52459;DHT22;38372;52.902;6.024;2023-12-22T08:21:56;6.80;99.90
52459;DHT22;38372;52.902;6.024;2023-12-22T08:24:22;6.80;99.90
52459;DHT22;38372;52.902;6.024;2023-12-22T08:26:48;6.80;99.90
52459;DHT22;38372;52.902;6.024;2023-12-22T08:29:14;6.70;99.90
52459;DHT22;38372;52.902;6.024;2023-12-22T08:31:41;6.70;99.90
52459;DHT22;38372;52.902;6.024;2023-12-22T08:34:07;6.70;99.90
52459;DHT22;38372;52.902;6.024;2023-12-22T08:36:33;6.70;99.90
52459;DHT22;38372;52.902;6.024;2023-12-22T08:38:58;6.70;99.90
52459;DHT22;38372;52.902;6.024;2023-12-22T08:41:24;6.80;99.90
52459;DHT22;38372;52.902;6.024;2023-12-22T08:43:50;6.80;99.90
52459;DHT22;38372;52.902;6.024;2023-12-22T08:46:16;6.80;99.90
52459;DHT22;38372;52.902;6.024;2023-12-22T08:48:42;6.80;99.90
52459;DHT22;38372;52.902;6.024;2023-12-22T08:51:08;6.80;99.90
52459;DHT22;38372;52.902;6.024;2023-12-22T08:53:34;6.70;99.90
52459;DHT22;38372;52.902;6.024;2023-12-22T08:56:03;6.80;99.90
52459;DHT22;38372;52.902;6.024;2023-12-22T08:58:29;6.80;99.90
52459;DHT22;38372;52.902;6.024;2023-12-22T09:00:55;6.90;99.90
52459;DHT22;38372;52.902;6.024;2023-12-22T09:03:21;6.90;99.90
52459;DHT22;38372;52.902;6.024;2023-12-22T09:05:47;6.90;99.90
52459;DHT22;38372;52.902;6.024;2023-12-22T09:08:13;6.80;99.90
52459;DHT22;38372;52.902;6.024;2023-12-22T09:10:38;6.80;99.90
52459;DHT22;38372;52.902;6.024;2023-12-22T09:13:04;6.80;99.90
52459;DHT22;38372;52.902;6.024;2023-12-22T09:15:30;6.70;99.90
52459;DHT22;38372;52.902;6.024;2023-12-22T09:17:56;6.60;99.90
52459;DHT22;38372;52.902;6.024;2023-12-22T09:20:22;6.60;99.90
52459;DHT22;38372;52.902;6.024;2023-12-22T09:22:48;6.60;99.90
52459;DHT22;38372;52.902;6.024;2023-12-22T09:25:14;6.60;99.90
52459;DHT22;38372;52.902;6.024;2023-12-22T09:27:39;6.50;99.90
52459;DHT22;38372;52.902;6.024;2023-12-22T09:30:06;6.50;99.90
52459;DHT22;38372;52.902;6.024;2023-12-22T09:32:34;6.50;99.90
52459;DHT22;38372;52.902;6.024;2023-12-22T09:35:00;6.50;99.90
52459;DHT22;38372;52.902;6.024;2023-12-22T09:37:26;6.50;99.90
52459;DHT22;38372;52.902;6.024;2023-12-22T09:39:52;6.50;99.90
52459;DHT22;38372;52.902;6.024;2023-12-22T09:42:21;6.50;99.90
52459;DHT22;38372;52.902;6.024;2023-12-22T09:44:49;6.50;99.90
52459;DHT22;38372;52.902;6.024;2023-12-22T09:47:16;6.40;99.90
52459;DHT22;38372;52.902;6.024;2023-12-22T09:49:43;6.40;99.90
52459;DHT22;38372;52.902;6.024;2023-12-22T09:52:10;6.40;99.90
52459;DHT22;38372;52.902;6.024;2023-12-22T09:54:37;6.40;99.90
52459;DHT22;38372;52.902;6.024;2023-12-22T09:57:03;6.50;99.90
52459;DHT22;38372;52.902;6.024;2023-12-22T09:59:30;6.50;99.90
52459;DHT22;38372;52.902;6.024;2023-12-22T10:01:57;6.50;99.90
52459;DHT22;38372;52.902;6.024;2023-12-22T10:04:25;6.60;99.90
52459;DHT22;38372;52.902;6.024;2023-12-22T10:06:51;6.60;99.90
52459;DHT22;38372;52.902;6.024;2023-12-22T10:09:19;6.70;99.90
52459;DHT22;38372;52.902;6.024;2023-12-22T10:11:47;6.80;99.90
52459;DHT22;38372;52.902;6.024;2023-12-22T10:14:15;6.80;99.90
52459;DHT22;38372;52.902;6.024;2023-12-22T10:16:49;6.90;99.90
52459;DHT22;38372;52.902;6.024;2023-12-22T10:19:15;6.90;99.90
52459;DHT22;38372;52.902;6.024;2023-12-22T10:21:41;6.90;99.90
52459;DHT22;38372;52.902;6.024;2023-12-22T10:24:07;6.90;99.90
52459;DHT22;38372;52.902;6.024;2023-12-22T10:26:33;6.90;99.90
52459;DHT22;38372;52.902;6.024;2023-12-22T10:28:59;7.00;99.90
52459;DHT22;38372;52.902;6.024;2023-12-22T10:31:24;7.00;99.90
52459;DHT22;38372;52.902;6.024;2023-12-22T10:33:51;7.00;99.90
52459;DHT22;38372;52.902;6.024;2023-12-22T10:36:17;7.00;99.90
52459;DHT22;38372;52.902;6.024;2023-12-22T10:38:45;7.00;99.90
52459;DHT22;38372;52.902;6.024;2023-12-22T10:41:11;7.10;99.90
52459;DHT22;38372;52.902;6.024;2023-12-22T10:43:40;7.10;99.90
52459;DHT22;38372;52.902;6.024;2023-12-22T10:46:07;7.10;99.90
52459;DHT22;38372;52.902;6.024;2023-12-22T10:48:36;7.10;99.90
52459;DHT22;38372;52.902;6.024;2023-12-22T10:51:02;7.10;99.90
52459;DHT22;38372;52.902;6.024;2023-12-22T10:53:28;7.20;99.90
52459;DHT22;38372;52.902;6.024;2023-12-22T10:55:54;7.20;99.90
52459;DHT22;38372;52.902;6.024;2023-12-22T10:58:20;7.20;99.90
52459;DHT22;38372;52.902;6.024;2023-12-22T11:00:48;7.20;99.90
52459;DHT22;38372;52.902;6.024;2023-12-22T11:03:17;7.20;99.90
52459;DHT22;38372;52.902;6.024;2023-12-22T11:05:46;7.20;99.90
52459;DHT22;38372;52.902;6.024;2023-12-22T11:08:13;7.20;99.90
52459;DHT22;38372;52.902;6.024;2023-12-22T11:10:42;7.20;99.90
52459;DHT22;38372;52.902;6.024;2023-12-22T11:13:12;7.30;99.90
52459;DHT22;38372;52.902;6.024;2023-12-22T11:15:39;7.30;99.90
52459;DHT22;38372;52.902;6.024;2023-12-22T11:18:07;7.30;99.90
52459;DHT22;38372;52.902;6.024;2023-12-22T11:20:33;7.30;99.90
52459;DHT22;38372;52.902;6.024;2023-12-22T11:23:00;7.30;99.90
52459;DHT22;38372;52.902;6.024;2023-12-22T11:25:28;7.40;99.90
52459;DHT22;38372;52.902;6.024;2023-12-22T11:27:55;7.40;99.90
52459;DHT22;38372;52.902;6.024;2023-12-22T11:30:26;7.40;99.90
52459;DHT22;38372;52.902;6.024;2023-12-22T11:32:57;7.50;99.90
52459;DHT22;38372;52.902;6.024;2023-12-22T11:35:23;7.50;99.90
52459;DHT22;38372;52.902;6.024;2023-12-22T11:37:51;7.50;99.90
52459;DHT22;38372;52.902;6.024;2023-12-22T11:40:18;7.50;99.90
52459;DHT22;38372;52.902;6.024;2023-12-22T11:42:49;7.50;99.90
52459;DHT22;38372;52.902;6.024;2023-12-22T11:45:17;7.60;99.90
52459;DHT22;38372;52.902;6.024;2023-12-22T11:47:45;7.60;99.90
52459;DHT22;38372;52.902;6.024;2023-12-22T11:50:11;7.60;99.90
52459;DHT22;38372;52.902;6.024;2023-12-22T11:52:38;7.60;99.90
52459;DHT22;38372;52.902;6.024;2023-12-22T11:55:04;7.60;99.90
52459;DHT22;38372;52.902;6.024;2023-12-22T11:57:38;7.60;99.90
52459;DHT22;38372;52.902;6.024;2023-12-22T12:00:08;7.60;99.90
52459;DHT22;38372;52.902;6.024;2023-12-22T12:02:37;7.60;99.90
52459;DHT22;38372;52.902;6.024;2023-12-22T12:05:08;7.60;99.90
52459;DHT22;38372;52.902;6.024;2023-12-22T12:07:47;7.60;99.90
52459;DHT22;38372;52.902;6.024;2023-12-22T12:13:11;7.60;99.90
52459;DHT22;38372;52.902;6.024;2023-12-22T12:15:37;7.60;99.90
52459;DHT22;38372;52.902;6.024;2023-12-22T12:18:04;7.60;99.90
52459;DHT22;38372;52.902;6.024;2023-12-22T12:20:32;7.60;99.90
52459;DHT22;38372;52.902;6.024;2023-12-22T12:22:58;7.60;99.90
52459;DHT22;38372;52.902;6.024;2023-12-22T12:25:29;7.60;99.90
52459;DHT22;38372;52.902;6.024;2023-12-22T12:28:02;7.70;99.90
52459;DHT22;38372;52.902;6.024;2023-12-22T12:30:28;7.70;99.90
52459;DHT22;38372;52.902;6.024;2023-12-22T12:32:54;7.70;99.90
52459;DHT22;38372;52.902;6.024;2023-12-22T12:35:28;7.70;99.90
52459;DHT22;38372;52.902;6.024;2023-12-22T12:37:55;7.70;99.90
52459;DHT22;38372;52.902;6.024;2023-12-22T12:40:24;7.70;99.90
52459;DHT22;38372;52.902;6.024;2023-12-22T12:42:50;7.80;99.90
52459;DHT22;38372;52.902;6.024;2023-12-22T12:45:22;7.80;99.90
52459;DHT22;38372;52.902;6.024;2023-12-22T12:50:22;7.80;99.90
52459;DHT22;38372;52.902;6.024;2023-12-22T12:52:49;7.80;99.90
52459;DHT22;38372;52.902;6.024;2023-12-22T12:55:18;7.80;99.90
52459;DHT22;38372;52.902;6.024;2023-12-22T12:57:44;7.80;99.90
52459;DHT22;38372;52.902;6.024;2023-12-22T13:00:10;7.80;99.90
52459;DHT22;38372;52.902;6.024;2023-12-22T13:02:38;7.80;99.90
52459;DHT22;38372;52.902;6.024;2023-12-22T13:05:04;7.80;99.90
52459;DHT22;38372;52.902;6.024;2023-12-22T13:07:32;7.70;99.90
52459;DHT22;38372;52.902;6.024;2023-12-22T13:09:58;7.70;99.90
52459;DHT22;38372;52.902;6.024;2023-12-22T13:12:24;7.70;99.90
52459;DHT22;38372;52.902;6.024;2023-12-22T13:14:51;7.70;99.90
52459;DHT22;38372;52.902;6.024;2023-12-22T13:17:18;7.70;99.90
52459;DHT22;38372;52.902;6.024;2023-12-22T13:19:44;7.70;99.90
52459;DHT22;38372;52.902;6.024;2023-12-22T13:22:10;7.60;99.90
52459;DHT22;38372;52.902;6.024;2023-12-22T13:24:36;7.60;99.90
52459;DHT22;38372;52.902;6.024;2023-12-22T13:27:04;7.60;99.90
52459;DHT22;38372;52.902;6.024;2023-12-22T13:29:43;7.60;99.90
52459;DHT22;38372;52.902;6.024;2023-12-22T13:32:15;7.60;99.90
52459;DHT22;38372;52.902;6.024;2023-12-22T13:34:50;7.60;99.90
52459;DHT22;38372;52.902;6.024;2023-12-22T13:37:16;7.60;99.90
52459;DHT22;38372;52.902;6.024;2023-12-22T13:39:43;7.60;99.90
52459;DHT22;38372;52.902;6.024;2023-12-22T13:42:17;7.60;99.90
52459;DHT22;38372;52.902;6.024;2023-12-22T13:44:44;7.60;99.90
52459;DHT22;38372;52.902;6.024;2023-12-22T13:47:19;7.60;99.90
52459;DHT22;38372;52.902;6.024;2023-12-22T13:49:46;7.50;99.90
52459;DHT22;38372;52.902;6.024;2023-12-22T13:52:31;7.50;99.90
52459;DHT22;38372;52.902;6.024;2023-12-22T13:55:14;7.50;99.90
52459;DHT22;38372;52.902;6.024;2023-12-22T13:57:41;7.50;99.90
52459;DHT22;38372;52.902;6.024;2023-12-22T14:02:48;7.50;99.90
52459;DHT22;38372;52.902;6.024;2023-12-22T14:05:18;7.50;99.90
52459;DHT22;38372;52.902;6.024;2023-12-22T14:07:44;7.50;99.90
52459;DHT22;38372;52.902;6.024;2023-12-22T14:10:11;7.50;99.90
52459;DHT22;38372;52.902;6.024;2023-12-22T14:12:40;7.50;99.90
52459;DHT22;38372;52.902;6.024;2023-12-22T14:15:07;7.50;99.90
52459;DHT22;38372;52.902;6.024;2023-12-22T14:17:33;7.40;99.90
52459;DHT22;38372;52.902;6.024;2023-12-22T14:19:59;7.30;99.90
52459;DHT22;38372;52.902;6.024;2023-12-22T14:22:25;7.30;99.90
52459;DHT22;38372;52.902;6.024;2023-12-22T14:24:52;7.20;99.90
52459;DHT22;38372;52.902;6.024;2023-12-22T14:27:18;7.10;99.90
52459;DHT22;38372;52.902;6.024;2023-12-22T14:29:47;7.00;99.90
52459;DHT22;38372;52.902;6.024;2023-12-22T14:32:13;7.00;99.90
52459;DHT22;38372;52.902;6.024;2023-12-22T14:34:40;7.00;99.90
52459;DHT22;38372;52.902;6.024;2023-12-22T14:37:06;7.00;99.90
52459;DHT22;38372;52.902;6.024;2023-12-22T14:39:32;7.00;99.90
52459;DHT22;38372;52.902;6.024;2023-12-22T14:41:59;7.00;99.90
52459;DHT22;38372;52.902;6.024;2023-12-22T14:44:25;7.00;99.90
52459;DHT22;38372;52.902;6.024;2023-12-22T14:46:51;7.00;99.90
52459;DHT22;38372;52.902;6.024;2023-12-22T14:49:16;7.00;99.90
52459;DHT22;38372;52.902;6.024;2023-12-22T14:51:43;7.00;99.90
52459;DHT22;38372;52.902;6.024;2023-12-22T14:54:10;7.00;99.90
52459;DHT22;38372;52.902;6.024;2023-12-22T14:56:40;7.00;99.90
52459;DHT22;38372;52.902;6.024;2023-12-22T14:59:11;7.00;99.90
52459;DHT22;38372;52.902;6.024;2023-12-22T15:01:38;7.00;99.90
52459;DHT22;38372;52.902;6.024;2023-12-22T15:04:05;7.00;99.90
52459;DHT22;38372;52.902;6.024;2023-12-22T15:06:31;7.00;99.90
52459;DHT22;38372;52.902;6.024;2023-12-22T15:08:58;7.00;99.90
52459;DHT22;38372;52.902;6.024;2023-12-22T15:11:26;7.00;99.90
52459;DHT22;38372;52.902;6.024;2023-12-22T15:13:52;7.00;99.90
52459;DHT22;38372;52.902;6.024;2023-12-22T15:16:18;7.00;99.90
52459;DHT22;38372;52.902;6.024;2023-12-22T15:18:43;7.00;99.90
52459;DHT22;38372;52.902;6.024;2023-12-22T15:21:09;7.00;99.90
52459;DHT22;38372;52.902;6.024;2023-12-22T15:23:44;7.00;99.90
52459;DHT22;38372;52.902;6.024;2023-12-22T15:26:20;7.10;99.90
52459;DHT22;38372;52.902;6.024;2023-12-22T15:28:46;7.20;99.90
52459;DHT22;38372;52.902;6.024;2023-12-22T15:31:12;7.20;99.90
52459;DHT22;38372;52.902;6.024;2023-12-22T15:33:37;7.20;99.90
52459;DHT22;38372;52.902;6.024;2023-12-22T15:36:03;7.20;99.90
52459;DHT22;38372;52.902;6.024;2023-12-22T15:38:29;7.30;99.90
52459;DHT22;38372;52.902;6.024;2023-12-22T15:40:55;7.30;99.90
52459;DHT22;38372;52.902;6.024;2023-12-22T15:43:21;7.40;99.90
52459;DHT22;38372;52.902;6.024;2023-12-22T15:45:46;7.40;99.90
52459;DHT22;38372;52.902;6.024;2023-12-22T15:48:14;7.40;99.90
52459;DHT22;38372;52.902;6.024;2023-12-22T15:50:40;7.40;99.90
52459;DHT22;38372;52.902;6.024;2023-12-22T15:53:05;7.50;99.90
52459;DHT22;38372;52.902;6.024;2023-12-22T15:55:31;7.40;99.90